Latest Weather Observations for Evans Head

IDN60801

Issued at 2:02 pm EDT Tuesday 31 March 2015 (issued every 30 minutes, with the page automatically refreshed every 10 minutes)

About weather observations | Map of weather stations | Latest weather observations for NSW | Other Formats
Station Details ID: 058212 Name: EVANS HEAD RAAF BOMBING RANGE AWS Lat: -29.18 Lon: 153.40 Height: 62.5 m
Data from the previous 72 hours. | See also: Recent months at Evans Head
Date/Time
EDT
Temp
°C
App
Temp
°C
Dew
Point
Rel
Hum
%
Delta-T
°C
Wind Press
QNH
hPa
Press
MSL
hPa
Rain
since 9 am
mm
Dir
 
Spd
km/h
Gust
km/h
Spd
kts
Gust
kts
31/02:00pm 21.9 25.9 21.4 97 0.3 N 2 7 1 4 1022.5 1022.2 1.0
31/01:30pm 22.1 25.4 21.8 98 0.2 N 7 9 4 5 1022.7 1022.4 1.0
31/01:00pm 21.4 23.9 21.1 98 0.2 N 9 13 5 7 1023.4 1023.1 1.0
31/12:30pm 20.5 23.0 20.2 98 0.2 E 7 9 4 5 1023.8 1023.6 1.0
31/12:00pm 19.8 20.8 19.5 98 0.2 SE 13 17 7 9 1024.4 1024.2 0.8
31/11:30am 20.0 21.0 19.5 97 0.3 SE 13 17 7 9 1024.8 1024.6 0.2
31/11:00am 19.9 20.4 19.2 96 0.4 E 15 20 8 11 1024.8 1024.6 0.2
31/10:30am 20.2 21.7 19.7 97 0.3 SE 11 17 6 9 1024.7 1024.5 0.2
31/10:00am 20.2 22.2 19.9 98 0.2 S 9 15 5 8 1024.5 1024.3 0.2
31/09:30am 18.7 19.6 18.4 98 0.2 E 11 17 6 9 1024.5 1024.3 0.2
31/09:00am 20.7 22.4 20.2 97 0.3 S 11 15 6 8 1024.1 1023.9 0.0
31/08:30am 20.0 21.4 19.5 97 0.3 SW 11 15 6 8 1023.2 1022.9 0.0
31/08:00am 19.6 20.8 19.1 97 0.3 W 11 15 6 8 1023.0 1022.7 0.0
31/07:30am 19.5 20.4 19.2 98 0.2 SW 13 19 7 10 1022.6 1022.3 0.0
31/07:00am 19.2 19.9 18.9 98 0.2 WSW 13 15 7 8 1022.5 1022.2 0.0
31/06:30am 19.1 20.1 18.6 97 0.3 WSW 11 15 6 8 1022.2 1021.9 0.0
31/06:00am 19.1 19.7 18.6 97 0.3 W 13 15 7 8 1022.2 1021.9 0.0
31/05:30am 19.4 20.4 18.6 95 0.5 WSW 11 13 6 7 1022.2 1021.9 0.0
31/05:00am 19.7 20.7 17.8 89 1.2 SW 9 13 5 7 1022.0 1021.7 0.0
31/04:30am 19.6 20.8 17.4 87 1.3 SW 7 11 4 6 1022.1 1021.8 0.0
31/04:00am 19.9 21.2 17.5 86 1.5 NNW 7 9 4 5 1022.2 1021.9 0.0
31/03:30am 19.7 21.0 17.5 87 1.3 NNW 7 9 4 5 1022.3 1022.0 0.0
31/03:00am 19.8 21.1 17.6 87 1.3 NNW 7 9 4 5 1022.5 1022.2 0.0
31/02:30am 19.4 20.7 17.5 89 1.2 N 7 7 4 4 1022.4 1022.1 0.0
31/02:00am 19.2 20.0 17.2 88 1.2 N 9 11 5 6 1022.8 1022.5 0.0
31/01:30am 19.3 19.8 16.5 84 1.7 N 9 11 5 6 1023.0 1022.7 0.0
31/01:00am 19.6 20.1 16.6 83 1.8 N 9 13 5 7 1023.1 1022.8 0.0
31/12:30am 20.0 20.5 16.6 81 2.1 N 9 20 5 11 1023.2 1022.9 0.0
31/12:00am 20.8 20.9 16.6 77 2.5 NNE 11 15 6 8 1023.3 1023.0 0.0
 
Date/Time
EDT
Temp
°C
App
Temp
°C
Dew
Point
Rel
Hum
%
Delta-T
°C
Wind Press
QNH
hPa
Press
MSL
hPa
Rain
since 9 am
mm
Dir
 
Spd
km/h
Gust
km/h
Spd
kts
Gust
kts
30/11:30pm 21.0 21.5 16.6 76 2.7 NNE 9 13 5 7 1023.5 1023.2 0.0
30/11:00pm 21.2 21.3 16.6 75 2.8 NNE 11 15 6 8 1023.7 1023.5 0.0
30/10:30pm 21.4 21.5 16.4 73 3.0 NNE 11 17 6 9 1023.7 1023.5 0.0
30/10:00pm 21.7 21.7 16.2 71 3.3 NNE 11 17 6 9 1023.9 1023.7 0.0
30/09:30pm 22.0 22.1 16.5 71 3.3 NNE 11 17 6 9 1023.7 1023.5 0.0
30/09:00pm 22.0 22.1 16.5 71 3.3 NNE 11 17 6 9 1023.5 1023.2 0.0
30/08:30pm 21.9 21.6 16.4 71 3.3 NNE 13 17 7 9 1023.3 1023.0 0.0
30/08:00pm 21.8 21.6 16.7 73 3.1 NNE 13 19 7 10 1023.1 1022.8 0.0
30/07:30pm 21.9 21.4 16.8 73 3.1 NNE 15 22 8 12 1022.4 1022.1 0.0
30/07:00pm 21.8 21.3 17.0 74 2.9 NNE 15 19 8 10 1022.3 1022.0 0.0
30/06:30pm 22.1 22.2 17.5 75 2.8 NNE 13 20 7 11 1022.1 1021.8 0.0
30/06:00pm 22.8 22.8 17.3 71 3.4 NNE 13 22 7 12 1021.9 1021.6 0.0
30/05:30pm 23.8 23.7 17.8 69 3.8 NNE 15 24 8 13 1021.5 1021.2 0.0
30/05:00pm 25.0 25.1 18.4 66 4.2 NNE 15 28 8 15 1021.3 1021.0 0.0
30/04:30pm 24.9 25.0 18.3 66 4.2 NNE 15 30 8 16 1021.2 1020.9 0.0
30/04:00pm 24.8 25.3 19.2 71 3.6 NNE 15 26 8 14 1021.3 1021.0 0.0
30/03:30pm 25.0 26.0 19.4 71 3.6 NNE 13 20 7 11 1021.2 1020.9 0.0
30/03:00pm 25.1 25.0 18.8 68 4.0 NNE 17 22 9 12 1021.4 1021.1 0.0
30/02:30pm 24.3 24.1 18.5 70 3.7 NNE 17 24 9 13 1021.5 1021.2 0.0
30/02:00pm 24.2 25.0 19.1 73 3.3 NNE 13 20 7 11 1021.8 1021.5 0.0
30/01:30pm 25.4 26.0 19.5 70 3.8 NNE 15 24 8 13 1022.2 1021.9 0.0
30/01:00pm 24.6 26.8 20.5 78 2.7 N 9 17 5 9 1022.8 1022.5 0.0
30/12:30pm 25.0 26.3 19.4 71 3.6 N 11 20 6 11 1023.2 1022.9 0.0
30/12:00pm 25.3 27.0 19.4 70 3.8 NNE 9 15 5 8 1023.5 1023.2 0.0
30/11:30am 25.5 26.8 19.4 69 3.9 NNW 11 19 6 10 1024.1 1023.9 0.0
30/11:00am 25.9 27.2 19.3 67 4.2 N 11 20 6 11 1024.1 1023.9 0.0
30/10:30am 26.9 27.8 20.0 66 4.5 NNW 15 24 8 13 1024.4 1024.2 0.0
30/10:00am 24.2 26.4 19.5 75 3.0 NNW 7 11 4 6 1024.3 1024.1 0.0
30/09:30am 23.2 24.9 19.4 79 2.4 NW 9 13 5 7 1024.2 1024.0 0.0
30/09:00am 22.5 25.0 21.0 91 1.0 NNW 9 13 5 7 1024.1 1023.9 0.0
30/08:30am 21.1 23.8 20.6 97 0.3 NNW 7 11 4 6 1023.6 1023.3 0.0
30/08:00am 20.6 22.8 20.3 98 0.2 NW 9 11 5 6 1023.3 1023.0 0.0
30/07:30am 18.3 19.4 18.0 98 0.2 NNW 9 13 5 7 1022.8 1022.5 0.0
30/07:00am 17.8 18.7 17.5 98 0.2 N 9 11 5 6 1022.5 1022.2 0.0
30/06:30am 17.8 18.3 17.5 98 0.2 NNW 11 15 6 8 1022.6 1022.3 0.0
30/06:00am 17.8 18.3 17.5 98 0.2 NNW 11 13 6 7 1022.4 1022.1 0.0
30/05:30am 17.9 18.8 17.6 98 0.2 N 9 11 5 6 1022.1 1021.8 0.0
30/05:00am 18.1 19.1 17.8 98 0.2 N 9 11 5 6 1021.7 1021.4 0.0
30/04:30am 18.1 18.7 17.6 97 0.3 N 11 13 6 7 1021.7 1021.4 0.0
30/04:00am 18.0 18.9 17.5 97 0.3 N 9 11 5 6 1021.9 1021.6 0.0
30/03:30am 18.2 18.8 17.7 97 0.3 N 11 13 6 7 1021.9 1021.6 0.0
30/03:00am 18.3 19.3 17.8 97 0.3 N 9 13 5 7 1021.9 1021.6 0.0
30/02:30am 18.4 19.5 17.9 97 0.3 N 9 11 5 6 1022.1 1021.8 0.0
30/02:00am 18.8 19.9 18.0 95 0.5 N 9 13 5 7 1022.3 1022.0 0.0
30/01:30am 19.1 19.8 17.9 93 0.7 N 11 13 6 7 1022.5 1022.2 0.0
30/01:00am 19.4 19.6 17.7 90 1.0 N 13 17 7 9 1022.7 1022.4 0.0
30/12:30am 19.7 20.0 18.0 90 1.1 N 13 19 7 10 1022.7 1022.4 0.0
30/12:00am 20.0 19.9 17.8 87 1.4 N 15 20 8 11 1022.7 1022.4 0.0
 
Date/Time
EDT
Temp
°C
App
Temp
°C
Dew
Point
Rel
Hum
%
Delta-T
°C
Wind Press
QNH
hPa
Press
MSL
hPa
Rain
since 9 am
mm
Dir
 
Spd
km/h
Gust
km/h
Spd
kts
Gust
kts
29/11:30pm 19.8 19.7 17.8 88 1.2 N 15 19 8 10 1022.7 1022.4 0.0
29/11:00pm 19.8 20.0 17.6 87 1.3 N 13 19 7 10 1022.8 1022.5 0.0
29/10:30pm 20.1 19.9 17.5 85 1.6 N 15 20 8 11 1023.0 1022.7 0.0
29/10:00pm 20.4 20.0 17.2 82 2.0 N 15 19 8 10 1023.2 1022.9 0.0
29/09:30pm 20.6 19.8 17.2 81 2.1 N 17 20 9 11 1023.1 1022.8 0.0
29/09:00pm 20.9 20.6 17.3 80 2.2 N 15 20 8 11 1022.9 1022.6 0.0
29/08:30pm 21.0 20.8 17.6 81 2.1 N 15 22 8 12 1022.5 1022.2 0.0
29/08:00pm 21.6 21.0 17.6 78 2.5 NNE 17 22 9 12 1022.2 1021.9 0.0
29/07:30pm 21.9 20.9 17.5 76 2.7 NNE 19 26 10 14 1021.7 1021.4 0.0
29/07:00pm 21.9 21.0 17.7 77 2.6 NNE 19 26 10 14 1021.4 1021.1 0.0
29/06:30pm 22.5 21.9 17.6 74 3.0 NNE 17 24 9 13 1021.4 1021.1 0.0
29/06:00pm 23.4 22.4 17.6 70 3.6 NNE 19 30 10 16 1021.2 1020.9 0.0
29/05:30pm 24.5 24.3 18.4 69 3.9 NNE 17 28 9 15 1021.0 1020.7 0.0
29/05:00pm 25.2 24.7 17.9 64 4.6 NNE 17 30 9 16 1020.8 1020.5 0.0
29/04:30pm 25.7 24.9 18.1 63 4.8 NE 19 28 10 15 1020.7 1020.4 0.0
29/04:00pm 26.5 26.6 18.4 61 5.1 NE 15 24 8 13 1020.9 1020.6 0.0
29/03:30pm 26.6 26.6 19.0 63 4.9 NNE 17 26 9 14 1021.2 1020.9 0.0
29/03:00pm 26.7 27.0 18.8 62 5.1 NE 15 28 8 15 1021.2 1020.9 0.0
29/02:30pm 26.3 26.8 19.2 65 4.6 ENE 15 24 8 13 1021.4 1021.1 0.0
29/02:00pm 24.2 24.5 18.8 72 3.4 E 15 26 8 14 1022.0 1021.7 0.0
29/01:30pm 24.1 23.9 18.5 71 3.5 E 17 30 9 16 1022.4 1022.1 0.0
29/01:00pm 24.8 25.4 18.5 68 4.0 E 13 20 7 11 1022.5 1022.2 0.0
29/12:30pm 27.1 28.7 19.9 64 4.7 ENE 11 17 6 9 1022.8 1022.5 0.0
29/12:00pm 26.6 28.7 20.2 68 4.2 E 9 15 5 8 1023.4 1023.1 0.0
29/11:30am 23.9 27.1 18.8 73 3.2 CALM 0 0 0 0 1023.8 1023.6 0.0
29/11:00am 24.3 27.4 18.7 71 3.5 CALM 0 7 0 4 1024.0 1023.8 0.0
29/10:30am 24.6 27.2 19.2 72 3.5 NW 4 9 2 5 1024.0 1023.8 0.0
29/10:00am 25.0 27.3 19.4 71 3.6 SSW 6 11 3 6 1023.9 1023.7 0.0
29/09:30am 23.6 25.8 19.3 77 2.8 WSW 6 9 3 5 1023.8 1023.6 0.0
29/09:00am 22.5 24.7 19.5 83 1.9 SW 7 11 4 6 1023.5 1023.2 0.0
29/08:30am 20.8 22.1 18.4 86 1.5 SW 9 11 5 6 1022.9 1022.6 0.0
29/08:00am 20.3 21.7 18.6 90 1.1 SW 9 11 5 6 1022.6 1022.3 0.0
29/07:30am 19.7 20.8 18.0 90 1.1 WSW 9 13 5 7 1022.3 1022.0 0.0
29/07:00am 19.3 20.0 18.0 92 0.8 WSW 11 13 6 7 1022.1 1021.8 0.0
29/06:30am 19.5 20.7 18.3 93 0.7 WSW 9 13 5 7 1021.7 1021.4 0.0
29/06:00am 19.5 20.4 18.3 93 0.7 SW 11 13 6 7 1021.3 1021.0 0.0
29/05:30am 19.4 20.8 18.6 95 0.5 W 9 13 5 7 1020.9 1020.6 0.0
29/05:00am 19.4 20.4 18.6 95 0.5 SW 11 13 6 7 1020.9 1020.6 0.0
29/04:30am 19.4 20.8 18.6 95 0.5 W 9 13 5 7 1020.8 1020.5 0.0
29/04:00am 19.8 20.4 18.6 93 0.7 WSW 13 17 7 9 1020.6 1020.3 0.0
29/03:30am 19.9 20.9 18.7 93 0.8 W 11 15 6 8 1020.6 1020.3 0.0
29/03:00am 20.2 21.1 19.2 94 0.6 W 13 15 7 8 1020.8 1020.5 0.0
29/02:30am 19.9 21.2 19.4 97 0.3 W 11 13 6 7 1021.0 1020.7 0.0
29/02:00am 20.2 21.7 19.7 97 0.3 WSW 11 13 6 7 1021.3 1021.0 0.0
29/01:30am 20.3 21.8 19.8 97 0.3 W 11 15 6 8 1021.4 1021.1 0.0
29/01:00am 20.5 22.5 20.0 97 0.3 WSW 9 13 5 7 1021.6 1021.3 0.0
29/12:30am 20.7 22.8 20.2 97 0.3 WSW 9 13 5 7 1021.8 1021.5 0.0
29/12:00am 20.7 22.6 19.7 94 0.6 WSW 9 13 5 7 1022.1 1021.8 0.0
 
Date/Time
EDT
Temp
°C
App
Temp
°C
Dew
Point
Rel
Hum
%
Delta-T
°C
Wind Press
QNH
hPa
Press
MSL
hPa
Rain
since 9 am
mm
Dir
 
Spd
km/h
Gust
km/h
Spd
kts
Gust
kts
28/11:30pm 21.2 23.0 19.5 90 1.1 W 9 13 5 7 1022.3 1022.0 0.0
28/11:00pm 21.8 23.4 19.2 85 1.6 W 9 13 5 7 1022.2 1021.9 0.0
28/10:30pm 21.8 24.3 19.0 84 1.8 NW 4 7 2 4 1022.2 1021.9 0.0
28/10:00pm 21.9 23.6 18.5 81 2.1 NNE 7 11 4 6 1022.1 1021.8 0.0
28/09:30pm 22.3 23.4 18.1 77 2.6 NNE 9 11 5 6 1022.0 1021.7 0.0
28/09:00pm 22.6 23.7 17.9 75 2.9 NNE 9 13 5 7 1021.5 1021.2 0.0
28/08:30pm 22.9 24.6 18.4 76 2.8 NNE 7 13 4 7 1021.3 1021.0 0.0
28/08:00pm 23.2 24.0 19.1 78 2.6 SE 13 19 7 10 1020.9 1020.6 0.0
28/07:30pm 22.8 23.4 19.4 81 2.2 SE 15 19 8 10 1020.5 1020.2 0.0
28/07:00pm 22.4 22.9 19.2 82 2.0 ESE 15 22 8 12 1020.3 1020.0 0.0
28/06:30pm 22.5 22.9 19.1 81 2.2 SE 15 22 8 12 1020.0 1019.7 0.0
28/06:00pm 22.6 22.4 18.6 78 2.5 SE 17 22 9 12 1020.1 1019.8 0.0
28/05:30pm 23.3 23.1 18.4 74 3.1 SE 17 24 9 13 1020.1 1019.8 0.0
28/05:00pm 23.9 23.3 18.5 72 3.4 SE 19 24 10 13 1020.0 1019.7 0.0
28/04:30pm 24.6 24.7 19.2 72 3.5 SE 17 26 9 14 1019.9 1019.6 0.0
28/04:00pm 24.9 24.5 19.3 71 3.6 SSE 20 28 11 15 1020.0 1019.7 0.0
28/03:30pm 24.8 24.3 19.0 70 3.7 SSE 20 26 11 14 1020.1 1019.8 0.0
28/03:00pm 25.4 24.8 19.8 71 3.6 SSE 22 28 12 15 1020.2 1019.9 0.0
28/02:30pm 25.9 25.9 19.8 69 4.0 SSE 19 26 10 14 1020.4 1020.1 0.0

Other Formats:

Comma delimited format used in spreadsheet applications
http://www.bom.gov.au/fwo/IDN60801/IDN60801.94598.axf

JavaScript Object Notation format (JSON) in row-major order
http://www.bom.gov.au/fwo/IDN60801/IDN60801.94598.json